createdAt,value
2023-03-07T00:01:44.426Z,33.03
2023-03-07T00:04:10.962Z,34.70
2023-03-07T00:06:37.522Z,37.57
2023-03-07T00:09:04.029Z,31.67
2023-03-07T00:11:30.565Z,33.67
2023-03-07T00:13:57.082Z,32.17
2023-03-07T00:16:24.734Z,31.63
2023-03-07T00:18:51.309Z,36.07
2023-03-07T00:21:21.059Z,36.90
2023-03-07T00:23:48.217Z,35.90
2023-03-07T00:26:20.829Z,35.27
2023-03-07T00:28:49.365Z,32.30
2023-03-07T00:31:16.778Z,34.03
2023-03-07T00:33:43.416Z,35.03
2023-03-07T00:36:16.342Z,36.00
2023-03-07T00:38:43.022Z,37.83
2023-03-07T00:41:12.368Z,35.23
2023-03-07T00:43:39.495Z,36.97
2023-03-07T00:46:06.194Z,37.77
2023-03-07T00:48:38.533Z,37.47
2023-03-07T00:51:07.537Z,37.87
2023-03-07T00:53:35.073Z,41.37
2023-03-07T00:56:07.607Z,35.80
2023-03-07T00:58:36.294Z,37.00
2023-03-07T01:01:05.908Z,35.93
2023-03-07T01:03:34.283Z,35.87
2023-03-07T01:06:06.231Z,38.53
2023-03-07T01:08:33.421Z,43.23
2023-03-07T01:11:01.994Z,36.07
2023-03-07T01:13:29.573Z,36.87
2023-03-07T01:15:56.646Z,35.87
2023-03-07T01:18:23.192Z,36.77
2023-03-07T01:20:49.696Z,33.10
2023-03-07T01:23:16.392Z,32.93
2023-03-07T01:25:43.456Z,36.33
2023-03-07T01:28:13.765Z,36.60
2023-03-07T01:30:41.432Z,34.83
2023-03-07T01:33:09.962Z,34.50
2023-03-07T01:35:40.108Z,35.03
2023-03-07T01:38:06.779Z,33.27
2023-03-07T01:40:38.218Z,34.13
2023-03-07T01:43:24.543Z,29.77
2023-03-07T01:46:30.828Z,29.53
2023-03-07T01:49:03.789Z,32.67
2023-03-07T01:51:32.649Z,32.87
2023-03-07T01:54:04.391Z,30.93
2023-03-07T01:56:31.411Z,30.60
2023-03-07T01:58:58.320Z,28.57
2023-03-07T02:01:27.383Z,31.00
2023-03-07T02:04:09.594Z,27.70
2023-03-07T02:06:38.785Z,32.20
2023-03-07T02:09:13.884Z,29.90
2023-03-07T02:11:43.537Z,31.77
2023-03-07T02:14:10.788Z,28.90
2023-03-07T02:16:38.858Z,30.27
2023-03-07T02:19:29.595Z,28.10
2023-03-07T02:22:11.121Z,26.73
2023-03-07T02:24:45.630Z,28.00
2023-03-07T02:27:13.411Z,30.80
2023-03-07T02:29:40.638Z,28.93
2023-03-07T02:32:09.009Z,29.90
2023-03-07T02:34:35.741Z,28.43
2023-03-07T02:37:12.461Z,30.40
2023-03-07T02:39:42.908Z,30.63
2023-03-07T02:42:22.737Z,30.20
2023-03-07T02:45:00.461Z,30.10
2023-03-07T02:47:29.884Z,30.37
2023-03-07T02:49:57.871Z,32.87
2023-03-07T02:52:24.592Z,29.40
2023-03-07T02:54:51.103Z,27.73
2023-03-07T02:57:18.260Z,30.47
2023-03-07T02:59:44.775Z,29.90
2023-03-07T03:02:11.401Z,29.07
2023-03-07T03:04:37.919Z,33.07
2023-03-07T03:07:04.815Z,31.33
2023-03-07T03:09:31.509Z,33.23
2023-03-07T03:11:58.259Z,32.27
2023-03-07T03:14:27.984Z,28.17
2023-03-07T03:16:54.718Z,32.43
2023-03-07T03:19:21.585Z,28.93
2023-03-07T03:21:48.766Z,34.60
2023-03-07T03:24:16.452Z,30.97
2023-03-07T03:26:44.708Z,30.63
2023-03-07T03:29:11.915Z,33.07
2023-03-07T03:31:39.319Z,31.03
2023-03-07T03:34:06.010Z,29.60
2023-03-07T03:36:33.656Z,33.43
2023-03-07T03:39:06.942Z,32.50
2023-03-07T03:41:33.489Z,29.90
2023-03-07T03:44:00.140Z,30.27
2023-03-07T03:46:30.764Z,29.93
2023-03-07T03:48:57.867Z,29.23
2023-03-07T03:51:27.320Z,31.73
2023-03-07T03:53:58.165Z,29.47
2023-03-07T03:56:26.504Z,29.53
2023-03-07T03:58:55.286Z,32.30
2023-03-07T04:01:24.370Z,29.33
2023-03-07T04:03:52.134Z,32.50
2023-03-07T04:06:25.287Z,29.90
2023-03-07T04:08:53.106Z,30.93
2023-03-07T04:11:21.395Z,31.83
2023-03-07T04:13:48.144Z,30.17
2023-03-07T04:16:15.938Z,28.63
2023-03-07T04:18:42.894Z,31.97
2023-03-07T04:21:13.016Z,30.00
2023-03-07T04:23:40.592Z,27.63
2023-03-07T04:26:08.963Z,28.53
2023-03-07T04:28:44.823Z,28.33
2023-03-07T04:31:21.645Z,27.80
2023-03-07T04:33:50.132Z,26.43
2023-03-07T04:36:18.077Z,26.03
2023-03-07T04:38:47.557Z,28.97
2023-03-07T04:41:16.340Z,26.23
2023-03-07T04:43:43.414Z,26.83
2023-03-07T04:46:12.035Z,27.80
2023-03-07T04:48:38.966Z,27.40
2023-03-07T04:51:06.273Z,26.63
2023-03-07T04:53:33.144Z,24.53
2023-03-07T04:56:01.419Z,27.13
2023-03-07T04:58:30.158Z,24.67
2023-03-07T05:00:57.619Z,27.20
2023-03-07T05:03:26.459Z,22.33
2023-03-07T05:05:53.971Z,27.27
2023-03-07T05:08:22.381Z,24.77
2023-03-07T05:10:49.605Z,25.67
2023-03-07T05:13:16.178Z,25.03
2023-03-07T05:15:43.167Z,24.37
2023-03-07T05:18:09.804Z,25.93
2023-03-07T05:20:36.294Z,21.43
2023-03-07T05:23:02.800Z,24.40
2023-03-07T05:25:29.602Z,24.47
2023-03-07T05:27:56.108Z,21.30
2023-03-07T05:30:22.624Z,25.27
2023-03-07T05:32:49.662Z,24.40
2023-03-07T05:35:16.260Z,24.60
2023-03-07T05:37:44.215Z,23.13
2023-03-07T05:40:11.511Z,23.97
2023-03-07T05:42:41.583Z,26.43
2023-03-07T05:45:08.691Z,23.50
2023-03-07T05:47:35.706Z,21.57
2023-03-07T05:50:02.324Z,23.83
2023-03-07T05:52:29.074Z,23.17
2023-03-07T05:54:55.873Z,22.03
2023-03-07T05:57:23.848Z,22.33
2023-03-07T05:59:50.677Z,20.87
2023-03-07T06:02:17.467Z,24.23
2023-03-07T06:04:44.162Z,20.10
2023-03-07T06:07:10.606Z,22.40
2023-03-07T06:09:37.176Z,22.80
2023-03-07T06:12:04.200Z,25.47
2023-03-07T06:14:32.200Z,22.50
2023-03-07T06:16:58.777Z,23.13
2023-03-07T06:19:25.676Z,24.87
2023-03-07T06:21:52.389Z,21.47
2023-03-07T06:24:19.607Z,21.50
2023-03-07T06:26:46.720Z,20.77
2023-03-07T06:29:14.029Z,20.40
2023-03-07T06:31:40.709Z,20.90
2023-03-07T06:34:08.562Z,18.20
2023-03-07T06:36:35.350Z,22.43
2023-03-07T06:39:02.174Z,18.17
2023-03-07T06:41:28.929Z,18.80
2023-03-07T06:43:58.903Z,18.93
2023-03-07T06:46:28.112Z,19.03
2023-03-07T06:48:55.808Z,21.70
2023-03-07T06:51:23.487Z,17.27
2023-03-07T06:53:50.676Z,22.30
2023-03-07T06:56:17.564Z,18.13
2023-03-07T06:58:44.276Z,20.47
2023-03-07T07:01:20.941Z,18.17
2023-03-07T07:03:50.179Z,19.17
2023-03-07T07:06:17.433Z,19.00
2023-03-07T07:08:43.969Z,18.73
2023-03-07T07:11:11.153Z,19.47
2023-03-07T07:13:38.301Z,15.67
2023-03-07T07:16:07.778Z,17.37
2023-03-07T07:18:36.485Z,18.63
2023-03-07T07:21:05.997Z,18.03
2023-03-07T07:23:32.995Z,22.17
2023-03-07T07:26:00.440Z,19.80
2023-03-07T07:28:27.299Z,18.47
2023-03-07T07:30:54.053Z,17.83
2023-03-07T07:33:20.734Z,18.10
2023-03-07T07:35:50.305Z,15.20
2023-03-07T07:38:17.555Z,18.43
2023-03-07T07:40:45.013Z,17.63
2023-03-07T07:43:15.521Z,17.63
2023-03-07T07:45:47.186Z,18.17
2023-03-07T07:48:17.296Z,16.10
2023-03-07T07:50:46.032Z,17.03
2023-03-07T07:53:13.443Z,15.63
2023-03-07T07:55:40.616Z,14.77
2023-03-07T07:58:07.229Z,16.50
2023-03-07T08:00:33.845Z,16.20
2023-03-07T08:03:01.024Z,15.23
2023-03-07T08:05:27.553Z,15.57
2023-03-07T08:07:54.056Z,15.87
2023-03-07T08:10:20.632Z,14.73
2023-03-07T08:12:53.611Z,16.20
2023-03-07T08:15:23.997Z,16.67
2023-03-07T08:17:51.287Z,15.13
2023-03-07T08:20:18.420Z,18.47
2023-03-07T08:22:44.943Z,14.73
2023-03-07T08:25:17.862Z,14.17
2023-03-07T08:27:44.375Z,13.53
2023-03-07T08:30:11.530Z,13.67
2023-03-07T08:32:38.188Z,13.20
2023-03-07T08:35:05.448Z,14.97
2023-03-07T08:37:32.001Z,13.13
2023-03-07T08:39:58.489Z,15.63
2023-03-07T08:42:25.075Z,14.10
2023-03-07T08:44:51.567Z,15.30
2023-03-07T08:47:18.052Z,13.07
2023-03-07T08:49:44.565Z,13.53
2023-03-07T08:52:11.091Z,14.23
2023-03-07T08:54:37.644Z,15.43
2023-03-07T08:57:04.708Z,13.43
2023-03-07T08:59:31.228Z,13.73
2023-03-07T09:01:57.789Z,13.10
2023-03-07T09:04:24.830Z,13.90
2023-03-07T09:06:51.755Z,13.13
2023-03-07T09:09:18.563Z,12.53
2023-03-07T09:11:45.203Z,12.77
2023-03-07T09:14:11.848Z,11.10
2023-03-07T09:16:38.622Z,13.77
2023-03-07T09:19:05.832Z,12.67
2023-03-07T09:21:32.787Z,11.20
2023-03-07T09:23:59.448Z,14.13
2023-03-07T09:26:26.082Z,11.33
2023-03-07T09:28:52.724Z,13.20
2023-03-07T09:31:19.396Z,11.43
2023-03-07T09:33:47.049Z,11.47
2023-03-07T09:36:14.776Z,11.83
2023-03-07T09:38:41.312Z,11.23
2023-03-07T09:41:25.658Z,12.43
2023-03-07T09:44:07.682Z,13.20
2023-03-07T09:47:10.867Z,11.03
2023-03-07T09:49:45.143Z,12.60
2023-03-07T09:52:15.853Z,13.13
2023-03-07T09:54:50.079Z,10.83
2023-03-07T09:57:26.513Z,14.47
2023-03-07T10:00:00.697Z,14.90
2023-03-07T10:02:39.163Z,12.43
2023-03-07T10:05:08.346Z,13.60
2023-03-07T10:07:35.574Z,12.50
2023-03-07T10:10:06.695Z,16.37
2023-03-07T10:12:54.317Z,14.13
2023-03-07T10:15:35.966Z,12.13
2023-03-07T10:18:36.554Z,11.97
2023-03-07T10:21:28.207Z,13.27
2023-03-07T10:24:11.298Z,12.40
2023-03-07T10:27:05.438Z,12.03
2023-03-07T10:29:41.843Z,12.33
2023-03-07T10:32:35.320Z,11.47
2023-03-07T10:35:10.577Z,12.70
2023-03-07T10:37:48.262Z,11.83
2023-03-07T10:40:23.557Z,12.73
2023-03-07T10:42:50.040Z,13.63
2023-03-07T10:45:17.089Z,16.10
2023-03-07T10:47:43.663Z,13.83
2023-03-07T10:50:24.185Z,16.80
2023-03-07T10:53:40.217Z,12.60
2023-03-07T10:56:15.787Z,16.63
2023-03-07T10:59:03.865Z,13.37
2023-03-07T11:01:32.158Z,13.67
2023-03-07T11:04:07.146Z,15.77
2023-03-07T11:06:44.633Z,16.07
2023-03-07T11:09:23.294Z,14.67
2023-03-07T11:11:54.027Z,15.77
2023-03-07T11:14:22.006Z,15.27
2023-03-07T11:16:52.229Z,17.00
2023-03-07T11:19:32.630Z,16.77
2023-03-07T11:22:01.394Z,16.53
2023-03-07T11:24:31.092Z,14.30
2023-03-07T11:26:59.384Z,16.00
2023-03-07T11:29:28.528Z,15.10
2023-03-07T11:32:22.686Z,17.73
2023-03-07T11:34:59.378Z,17.77
2023-03-07T11:37:39.436Z,14.20
2023-03-07T11:40:22.567Z,17.57
2023-03-07T11:43:22.894Z,17.67
2023-03-07T11:45:56.376Z,19.10
2023-03-07T11:48:35.995Z,18.53
2023-03-07T11:51:04.721Z,17.40
2023-03-07T11:53:47.878Z,16.90
2023-03-07T11:56:40.598Z,19.97
2023-03-07T11:59:29.332Z,16.43
2023-03-07T12:02:03.118Z,18.77
2023-03-07T12:04:41.765Z,16.77
2023-03-07T12:07:33.477Z,14.40
2023-03-07T12:10:21.834Z,16.57
2023-03-07T12:13:01.308Z,16.23
2023-03-07T12:15:51.709Z,16.50
2023-03-07T12:18:32.830Z,16.37
2023-03-07T12:21:17.930Z,16.40
2023-03-07T12:23:52.812Z,15.93
2023-03-07T12:26:43.835Z,18.93
2023-03-07T12:29:19.352Z,18.13
2023-03-07T12:31:51.364Z,16.13
2023-03-07T12:34:27.932Z,18.77
2023-03-07T12:37:01.012Z,17.30
2023-03-07T12:40:02.088Z,16.70
2023-03-07T12:43:00.285Z,15.10
2023-03-07T12:45:35.963Z,14.23
2023-03-07T12:48:20.132Z,15.03
2023-03-07T12:50:54.649Z,14.10
2023-03-07T12:53:55.089Z,13.33
2023-03-07T12:57:03.672Z,16.07
2023-03-07T12:59:35.130Z,13.33
2023-03-07T13:02:06.217Z,15.83
2023-03-07T13:04:37.038Z,14.33
2023-03-07T13:07:13.130Z,17.53
2023-03-07T13:09:42.601Z,15.33
2023-03-07T13:12:24.380Z,15.80
2023-03-07T13:14:57.075Z,15.67
2023-03-07T13:17:26.548Z,13.97
2023-03-07T13:19:55.623Z,14.27
2023-03-07T13:22:22.001Z,16.47
2023-03-07T13:24:52.118Z,14.37
2023-03-07T13:27:19.711Z,13.07
2023-03-07T13:30:04.915Z,15.93
2023-03-07T13:32:55.978Z,11.73
2023-03-07T13:35:48.164Z,15.47
2023-03-07T13:38:23.508Z,15.90
2023-03-07T13:41:01.278Z,14.73
2023-03-07T13:43:28.509Z,15.47
2023-03-07T13:45:59.187Z,16.30
2023-03-07T13:48:28.629Z,15.13
2023-03-07T13:50:54.986Z,15.53
2023-03-07T13:53:33.288Z,18.97
2023-03-07T13:56:15.214Z,13.73
2023-03-07T13:59:09.655Z,13.97
2023-03-07T14:01:42.064Z,14.67
2023-03-07T14:04:17.028Z,17.73
2023-03-07T14:06:56.754Z,13.27
2023-03-07T14:09:40.280Z,13.17
2023-03-07T14:13:05.100Z,15.90
2023-03-07T14:15:57.052Z,15.07
2023-03-07T14:18:26.456Z,15.37
2023-03-07T14:21:27.356Z,15.20
2023-03-07T14:24:14.656Z,16.83
2023-03-07T14:26:55.572Z,18.63
2023-03-07T14:29:27.536Z,16.47
2023-03-07T14:31:59.320Z,15.50
2023-03-07T14:34:32.214Z,14.07
2023-03-07T14:37:06.526Z,17.03
2023-03-07T14:39:42.904Z,15.90
2023-03-07T14:42:33.690Z,18.33
2023-03-07T14:45:12.317Z,15.20
2023-03-07T14:48:11.508Z,15.67
2023-03-07T14:50:44.152Z,14.17
2023-03-07T14:53:22.814Z,17.63
2023-03-07T14:55:52.517Z,14.77
2023-03-07T14:58:22.327Z,14.77
2023-03-07T15:01:15.927Z,13.83
2023-03-07T15:03:55.116Z,15.17
2023-03-07T15:06:25.263Z,15.17
2023-03-07T15:08:55.268Z,17.53
2023-03-07T15:11:44.742Z,15.43
2023-03-07T15:14:21.647Z,16.90
2023-03-07T15:16:51.036Z,15.23
2023-03-07T15:19:31.511Z,17.53
2023-03-07T15:22:01.302Z,17.37
2023-03-07T15:24:34.112Z,15.13
2023-03-07T15:27:01.596Z,17.37
2023-03-07T15:29:33.060Z,15.93
2023-03-07T15:32:07.175Z,17.83
2023-03-07T15:34:36.819Z,16.17
2023-03-07T15:37:58.601Z,17.67
2023-03-07T15:40:36.151Z,16.03
2023-03-07T15:43:04.417Z,16.97
2023-03-07T15:45:36.673Z,15.47
2023-03-07T15:48:24.214Z,13.30
2023-03-07T15:51:00.573Z,13.13
2023-03-07T15:53:34.151Z,15.50
2023-03-07T15:56:05.037Z,15.23
2023-03-07T15:58:35.130Z,16.30
2023-03-07T16:01:19.566Z,15.60
2023-03-07T16:04:04.450Z,15.43
2023-03-07T16:06:45.549Z,12.37
2023-03-07T16:09:17.429Z,12.93
2023-03-07T16:11:46.148Z,10.87
2023-03-07T16:14:25.975Z,12.57
2023-03-07T16:16:59.449Z,14.87
2023-03-07T16:19:26.891Z,13.70
2023-03-07T16:21:53.544Z,11.10
2023-03-07T16:24:20.208Z,13.33
2023-03-07T16:26:47.949Z,12.30
2023-03-07T16:29:16.883Z,13.30
2023-03-07T16:31:43.403Z,12.87
2023-03-07T16:34:18.569Z,12.83
2023-03-07T16:36:47.204Z,11.50
2023-03-07T16:39:14.410Z,15.00
2023-03-07T16:41:49.576Z,13.40
2023-03-07T16:44:18.987Z,16.07
2023-03-07T16:46:51.446Z,12.00
2023-03-07T16:49:18.494Z,14.80
2023-03-07T16:51:48.958Z,12.07
2023-03-07T16:54:20.613Z,10.90
2023-03-07T16:56:53.597Z,13.03
2023-03-07T16:59:22.569Z,10.93
2023-03-07T17:01:51.775Z,11.93
2023-03-07T17:04:18.333Z,17.37
2023-03-07T17:06:47.309Z,11.10
2023-03-07T17:09:15.277Z,11.97
2023-03-07T17:11:51.685Z,11.37
2023-03-07T17:14:19.260Z,12.17
2023-03-07T17:16:48.835Z,8.73
2023-03-07T17:19:30.229Z,13.93
2023-03-07T17:22:01.070Z,13.07
2023-03-07T17:24:29.095Z,10.93
2023-03-07T17:26:58.323Z,11.20
2023-03-07T17:29:34.981Z,11.07
2023-03-07T17:32:01.507Z,11.10
2023-03-07T17:34:31.230Z,12.60
2023-03-07T17:36:58.655Z,12.83
2023-03-07T17:39:25.315Z,11.63
2023-03-07T17:41:51.805Z,12.70
2023-03-07T17:44:18.264Z,23.53
2023-03-07T17:46:44.802Z,10.60
2023-03-07T17:49:11.400Z,11.73
2023-03-07T17:51:37.887Z,12.43
2023-03-07T17:54:06.652Z,12.03
2023-03-07T17:56:33.104Z,12.57
2023-03-07T17:59:01.508Z,14.37
2023-03-07T18:01:32.673Z,13.17
2023-03-07T18:03:59.972Z,16.60
2023-03-07T18:06:26.912Z,14.70
2023-03-07T18:08:53.584Z,14.27
2023-03-07T18:11:20.199Z,11.43
2023-03-07T18:13:46.818Z,11.53
2023-03-07T18:16:13.409Z,13.07
2023-03-07T18:18:50.569Z,16.00
2023-03-07T18:21:24.580Z,13.50
2023-03-07T18:23:52.127Z,12.70
2023-03-07T18:26:19.966Z,14.10
2023-03-07T18:28:48.391Z,14.13
2023-03-07T18:31:19.933Z,16.20
2023-03-07T18:33:50.872Z,13.93
2023-03-07T18:36:18.176Z,13.13
2023-03-07T18:38:44.926Z,15.77
2023-03-07T18:41:14.893Z,13.43
2023-03-07T18:43:41.944Z,11.47
2023-03-07T18:46:11.268Z,14.40
2023-03-07T18:48:38.038Z,12.60
2023-03-07T18:51:13.377Z,11.83
2023-03-07T18:53:40.268Z,13.47
2023-03-07T18:56:09.570Z,13.17
2023-03-07T18:58:36.886Z,14.83
2023-03-07T19:01:10.568Z,13.13
2023-03-07T19:03:37.061Z,14.03
2023-03-07T19:06:03.779Z,11.97
2023-03-07T19:08:30.382Z,15.07
2023-03-07T19:10:57.665Z,14.83
2023-03-07T19:13:24.114Z,14.40
2023-03-07T19:15:50.550Z,12.20
2023-03-07T19:18:16.958Z,12.77
2023-03-07T19:20:43.446Z,12.93
2023-03-07T19:23:09.975Z,14.30
2023-03-07T19:25:36.732Z,12.97
2023-03-07T19:28:03.331Z,12.07
2023-03-07T19:30:29.854Z,18.83
2023-03-07T19:32:58.767Z,13.67
2023-03-07T19:35:25.211Z,15.67
2023-03-07T19:37:51.637Z,14.23
2023-03-07T19:40:18.291Z,14.03
2023-03-07T19:42:44.736Z,14.53
2023-03-07T19:45:11.339Z,15.10
2023-03-07T19:47:37.882Z,13.00
2023-03-07T19:50:04.632Z,16.60
2023-03-07T19:52:31.119Z,15.87
2023-03-07T19:54:57.597Z,19.13
2023-03-07T19:57:24.098Z,13.80
2023-03-07T19:59:53.789Z,14.27
2023-03-07T20:02:20.683Z,17.00
2023-03-07T20:04:47.172Z,15.47
2023-03-07T20:07:13.674Z,14.70
2023-03-07T20:09:40.149Z,15.37
2023-03-07T20:12:08.989Z,13.13
2023-03-07T20:14:42.422Z,13.80
2023-03-07T20:17:10.781Z,14.70
2023-03-07T20:19:38.352Z,20.30
2023-03-07T20:22:05.665Z,15.10
2023-03-07T20:24:33.172Z,15.57
2023-03-07T20:27:00.345Z,15.40
2023-03-07T20:29:26.876Z,19.37
2023-03-07T20:31:53.547Z,27.37
2023-03-07T20:34:20.548Z,14.70
2023-03-07T20:36:47.255Z,13.77
2023-03-07T20:39:14.567Z,14.30
2023-03-07T20:41:42.765Z,13.67
2023-03-07T20:44:12.889Z,15.10
2023-03-07T20:46:39.871Z,12.63
2023-03-07T20:49:06.438Z,15.20
2023-03-07T20:51:35.421Z,16.13
2023-03-07T20:54:05.036Z,14.00
2023-03-07T20:56:33.181Z,15.33
2023-03-07T20:59:00.187Z,12.70
2023-03-07T21:01:29.585Z,15.83
2023-03-07T21:03:59.127Z,16.00
2023-03-07T21:06:25.622Z,15.40
2023-03-07T21:08:52.332Z,14.33
2023-03-07T21:11:20.598Z,14.77
2023-03-07T21:13:49.167Z,17.80
2023-03-07T21:16:18.810Z,16.23
2023-03-07T21:18:45.733Z,17.80
2023-03-07T21:21:15.149Z,15.17
2023-03-07T21:23:41.748Z,14.60
2023-03-07T21:26:22.400Z,14.23
2023-03-07T21:28:53.059Z,15.87
2023-03-07T21:31:25.603Z,17.43
2023-03-07T21:33:57.559Z,14.00
2023-03-07T21:36:27.059Z,18.87
2023-03-07T21:38:54.368Z,16.77
2023-03-07T21:41:27.240Z,16.80
2023-03-07T21:43:58.043Z,22.23
2023-03-07T21:46:25.924Z,36.20
2023-03-07T21:48:52.857Z,14.60
2023-03-07T21:51:20.364Z,14.67
2023-03-07T21:53:47.101Z,14.17
2023-03-07T21:56:18.703Z,14.27
2023-03-07T21:58:49.708Z,19.77
2023-03-07T22:01:21.963Z,11.63
2023-03-07T22:03:51.492Z,14.77
2023-03-07T22:06:18.108Z,22.00
2023-03-07T22:08:44.756Z,13.27
2023-03-07T22:11:12.855Z,14.00
2023-03-07T22:13:41.359Z,14.30
2023-03-07T22:16:12.368Z,16.07
2023-03-07T22:18:39.012Z,14.77
2023-03-07T22:21:07.865Z,13.90
2023-03-07T22:23:35.253Z,16.97
2023-03-07T22:26:07.228Z,12.40
2023-03-07T22:28:34.757Z,17.90
2023-03-07T22:31:06.819Z,15.63
2023-03-07T22:33:33.617Z,14.00
2023-03-07T22:36:02.282Z,14.37
2023-03-07T22:38:29.152Z,13.47
2023-03-07T22:41:04.230Z,12.60
2023-03-07T22:43:32.645Z,12.23
2023-03-07T22:45:59.470Z,13.73
2023-03-07T22:48:26.808Z,11.93
2023-03-07T22:50:54.173Z,14.67
2023-03-07T22:53:20.931Z,14.70
2023-03-07T22:55:47.433Z,16.17
2023-03-07T22:58:14.218Z,15.27
2023-03-07T23:00:42.594Z,16.00
2023-03-07T23:03:09.236Z,14.33
2023-03-07T23:05:36.367Z,12.53
2023-03-07T23:08:03.876Z,12.13
2023-03-07T23:10:31.150Z,12.57
2023-03-07T23:12:57.781Z,15.27
2023-03-07T23:15:24.698Z,15.47
2023-03-07T23:17:51.301Z,14.00
2023-03-07T23:20:18.933Z,12.50
2023-03-07T23:22:46.153Z,15.13
2023-03-07T23:25:13.608Z,13.60
2023-03-07T23:27:40.161Z,15.07
2023-03-07T23:30:07.201Z,13.63
2023-03-07T23:32:33.707Z,11.87
2023-03-07T23:35:00.471Z,14.30
2023-03-07T23:37:26.955Z,12.27
2023-03-07T23:39:53.475Z,14.30
2023-03-07T23:42:19.981Z,12.53
2023-03-07T23:44:49.831Z,15.33
2023-03-07T23:47:16.845Z,15.73
2023-03-07T23:49:43.335Z,14.17
2023-03-07T23:52:09.801Z,13.77
2023-03-07T23:54:36.277Z,15.17
2023-03-07T23:57:02.886Z,16.97
2023-03-07T23:59:29.342Z,15.43
